createdAt,value
2018-12-23T00:00:25.447Z,97590.61
2018-12-23T00:00:57.037Z,97599.50
2018-12-23T00:01:28.630Z,97599.06
2018-12-23T00:02:00.231Z,97600.78
2018-12-23T00:02:31.844Z,97601.18
2018-12-23T00:03:03.438Z,97601.16
2018-12-23T00:03:35.048Z,97603.70
2018-12-23T00:04:06.675Z,97597.33
2018-12-23T00:04:38.275Z,97606.20
2018-12-23T00:05:11.614Z,97607.05
2018-12-23T00:05:41.518Z,97609.11
2018-12-23T00:06:13.114Z,97592.34
2018-12-23T00:06:44.705Z,97602.34
2018-12-23T00:07:16.307Z,97601.02
2018-12-23T00:07:47.927Z,97603.13
2018-12-23T00:08:19.623Z,97602.69
2018-12-23T00:08:51.181Z,97610.80
2018-12-23T00:09:22.801Z,97603.13
2018-12-23T00:09:54.406Z,97603.97
2018-12-23T00:10:26.074Z,97607.80
2018-12-23T00:10:57.685Z,97614.63
2018-12-23T00:11:29.286Z,97606.12
2018-12-23T00:12:00.898Z,97611.66
2018-12-23T00:12:32.494Z,97603.14
2018-12-23T00:13:04.100Z,97613.44
2018-12-23T00:13:35.698Z,97600.21
2018-12-23T00:14:07.317Z,97605.33
2018-12-23T00:14:38.924Z,97612.11
2018-12-23T00:15:10.537Z,97613.00
2018-12-23T00:15:42.148Z,97606.61
2018-12-23T00:16:13.741Z,97607.41
2018-12-23T00:16:45.326Z,97608.23
2018-12-23T00:17:16.922Z,97612.48
2018-12-23T00:17:48.527Z,97608.64
2018-12-23T00:18:20.117Z,97610.72
2018-12-23T00:18:51.709Z,97604.81
2018-12-23T00:19:23.340Z,97612.00
2018-12-23T00:19:54.934Z,97613.77
2018-12-23T00:20:26.586Z,97609.50
2018-12-23T00:20:59.440Z,97617.55
2018-12-23T00:21:29.849Z,97610.30
2018-12-23T00:22:01.459Z,97608.58
2018-12-23T00:22:33.061Z,97618.39
2018-12-23T00:23:04.673Z,97612.86
2018-12-23T00:23:36.276Z,97612.48
2018-12-23T00:24:07.932Z,97619.73
2018-12-23T00:24:39.898Z,97624.02
2018-12-23T00:25:11.515Z,97612.52
2018-12-23T00:25:43.124Z,97613.81
2018-12-23T00:26:14.719Z,97619.39
2018-12-23T00:26:46.332Z,97619.84
2018-12-23T00:27:17.943Z,97610.47
2018-12-23T00:27:49.528Z,97619.05
2018-12-23T00:28:21.117Z,97623.27
2018-12-23T00:28:52.725Z,97625.83
2018-12-23T00:29:24.336Z,97613.53
2018-12-23T00:29:55.934Z,97619.92
2018-12-23T00:30:27.540Z,97621.61
2018-12-23T00:30:59.149Z,97621.63
2018-12-23T00:31:30.751Z,97610.97
2018-12-23T00:32:02.369Z,97619.92
2018-12-23T00:32:33.975Z,97622.08
2018-12-23T00:33:05.598Z,97618.30
2018-12-23T00:33:37.180Z,97619.16
2018-12-23T00:34:08.788Z,97625.57
2018-12-23T00:34:40.410Z,97628.98
2018-12-23T00:35:20.065Z,97631.55
2018-12-23T00:35:43.665Z,97626.47
2018-12-23T00:36:15.257Z,97633.73
2018-12-23T00:36:46.850Z,97637.17
2018-12-23T00:37:18.456Z,97626.53
2018-12-23T00:37:50.041Z,97624.41
2018-12-23T00:38:21.639Z,97632.09
2018-12-23T00:38:53.244Z,97629.98
2018-12-23T00:39:24.856Z,97626.56
2018-12-23T00:39:56.450Z,97624.93
2018-12-23T00:40:28.055Z,97632.61
2018-12-23T00:40:59.651Z,97625.86
2018-12-23T00:41:31.245Z,97630.14
2018-12-23T00:42:02.850Z,97631.42
2018-12-23T00:42:34.443Z,97625.12
2018-12-23T00:43:06.043Z,97629.78
2018-12-23T00:43:37.657Z,97629.36
2018-12-23T00:44:09.254Z,97637.47
2018-12-23T00:44:40.867Z,97627.25
2018-12-23T00:45:12.462Z,97640.94
2018-12-23T00:45:44.058Z,97637.98
2018-12-23T00:46:15.668Z,97629.47
2018-12-23T00:46:47.272Z,97631.13
2018-12-23T00:47:18.892Z,97628.59
2018-12-23T00:47:50.491Z,97633.70
2018-12-23T00:48:22.086Z,97639.69
2018-12-23T00:48:53.677Z,97636.27
2018-12-23T00:49:25.274Z,97634.56
2018-12-23T00:49:56.865Z,97629.02
2018-12-23T00:50:28.461Z,97632.86
2018-12-23T00:51:00.063Z,97635.86
2018-12-23T00:51:31.678Z,97642.68
2018-12-23T00:52:03.296Z,97635.50
2018-12-23T00:52:34.899Z,97643.19
2018-12-23T00:53:06.480Z,97643.62
2018-12-23T00:53:38.088Z,97641.88
2018-12-23T00:54:09.691Z,97639.25
2018-12-23T00:54:41.313Z,97636.70
2018-12-23T00:55:12.906Z,97636.69
2018-12-23T00:55:44.562Z,97637.98
2018-12-23T00:56:16.153Z,97623.55
2018-12-23T00:56:47.760Z,97653.77
2018-12-23T00:57:19.492Z,97634.20
2018-12-23T00:57:51.006Z,97651.63
2018-12-23T00:58:22.616Z,97643.16
2018-12-23T00:58:54.209Z,97649.99
2018-12-23T00:59:25.806Z,97651.28
2018-12-23T00:59:57.398Z,97653.03
2018-12-23T01:00:29.016Z,97659.00
2018-12-23T01:01:00.620Z,97653.56
2018-12-23T01:01:32.235Z,97654.77
2018-12-23T01:02:03.829Z,97657.81
2018-12-23T01:02:35.432Z,97652.28
2018-12-23T01:03:07.048Z,97662.09
2018-12-23T01:03:38.642Z,97631.94
2018-12-23T01:04:10.241Z,97663.38
2018-12-23T01:04:41.834Z,97669.78
2018-12-23T01:05:13.430Z,97649.64
2018-12-23T01:05:45.029Z,97659.19
2018-12-23T01:06:16.613Z,97668.16
2018-12-23T01:06:48.198Z,97666.48
2018-12-23T01:07:19.800Z,97639.22
2018-12-23T01:07:51.391Z,97663.52
2018-12-23T01:08:22.978Z,97671.59
2018-12-23T01:08:54.584Z,97664.79
2018-12-23T01:09:26.189Z,97672.03
2018-12-23T01:09:57.800Z,97672.03
2018-12-23T01:10:29.409Z,97667.44
2018-12-23T01:11:01.020Z,97668.66
2018-12-23T01:11:32.619Z,97676.33
2018-12-23T01:12:04.215Z,97671.69
2018-12-23T01:12:35.819Z,97673.39
2018-12-23T01:13:07.415Z,97678.89
2018-12-23T01:13:39.009Z,97675.48
2018-12-23T01:14:10.601Z,97681.07
2018-12-23T01:14:42.232Z,97675.54
2018-12-23T01:15:13.869Z,97667.44
2018-12-23T01:15:45.474Z,97678.52
2018-12-23T01:16:17.067Z,97678.53
2018-12-23T01:16:48.675Z,97676.83
2018-12-23T01:17:20.311Z,97679.40
2018-12-23T01:17:51.902Z,97677.25
2018-12-23T01:18:23.494Z,97682.38
2018-12-23T01:18:55.096Z,97688.34
2018-12-23T01:19:26.701Z,97686.27
2018-12-23T01:19:58.336Z,97682.44
2018-12-23T01:20:29.940Z,97690.09
2018-12-23T01:21:01.552Z,97688.34
2018-12-23T01:21:33.146Z,97686.70
2018-12-23T01:22:04.797Z,97680.73
2018-12-23T01:22:36.380Z,97700.77
2018-12-23T01:23:07.974Z,97692.67
2018-12-23T01:23:39.561Z,97690.55
2018-12-23T01:24:11.161Z,97698.20
2018-12-23T01:24:42.757Z,97694.02
2018-12-23T01:25:14.378Z,97692.73
2018-12-23T01:25:45.970Z,97696.50
2018-12-23T01:26:17.575Z,97700.38
2018-12-23T01:26:49.160Z,97702.52
2018-12-23T01:27:20.754Z,97693.94
2018-12-23T01:27:52.367Z,97701.59
2018-12-23T01:28:23.968Z,97702.46
2018-12-23T01:28:55.566Z,97706.72
2018-12-23T01:29:27.163Z,97693.09
2018-12-23T01:29:58.797Z,97702.46
2018-12-23T01:30:30.409Z,97699.45
2018-12-23T01:31:02.015Z,97703.30
2018-12-23T01:31:33.610Z,97707.13
2018-12-23T01:32:05.218Z,97702.87
2018-12-23T01:32:36.828Z,97707.50
2018-12-23T01:33:08.436Z,97707.92
2018-12-23T01:33:40.045Z,97710.05
2018-12-23T01:34:11.646Z,97698.98
2018-12-23T01:34:43.241Z,97702.38
2018-12-23T01:35:14.871Z,97705.37
2018-12-23T01:35:46.470Z,97700.67
2018-12-23T01:36:18.066Z,97710.06
2018-12-23T01:36:49.672Z,97696.06
2018-12-23T01:37:21.281Z,97704.58
2018-12-23T01:37:52.881Z,97705.80
2018-12-23T01:38:24.488Z,97709.63
2018-12-23T01:38:56.081Z,97703.23
2018-12-23T01:39:27.664Z,97714.31
2018-12-23T01:39:59.258Z,97709.63
2018-12-23T01:40:30.878Z,97708.36
2018-12-23T01:41:04.395Z,97704.95
2018-12-23T01:41:34.117Z,97716.45
2018-12-23T01:42:05.714Z,97708.34
2018-12-23T01:42:37.312Z,97711.32
2018-12-23T01:43:08.905Z,97709.61
2018-12-23T01:43:40.491Z,97718.16
2018-12-23T01:44:12.104Z,97716.85
2018-12-23T01:44:43.743Z,97719.41
2018-12-23T01:45:15.363Z,97719.83
2018-12-23T01:45:46.957Z,97724.52
2018-12-23T01:46:18.559Z,97708.28
2018-12-23T01:46:50.159Z,97719.79
2018-12-23T01:47:21.768Z,97719.40
2018-12-23T01:47:53.361Z,97721.13
2018-12-23T01:48:24.972Z,97723.63
2018-12-23T01:48:56.575Z,97724.05
2018-12-23T01:49:28.173Z,97721.48
2018-12-23T01:49:59.769Z,97722.75
2018-12-23T01:50:31.404Z,97727.00
2018-12-23T01:51:03.001Z,97720.20
2018-12-23T01:51:34.609Z,97720.63
2018-12-23T01:52:06.214Z,97720.20
2018-12-23T01:52:37.820Z,97725.73
2018-12-23T01:53:09.428Z,97717.19
2018-12-23T01:53:41.044Z,97720.60
2018-12-23T01:54:12.647Z,97725.28
2018-12-23T01:54:44.241Z,97717.62
2018-12-23T01:55:15.861Z,97720.55
2018-12-23T01:55:47.468Z,97717.56
2018-12-23T01:56:19.093Z,97715.45
2018-12-23T01:56:50.672Z,97723.11
2018-12-23T01:57:22.283Z,97724.39
2018-12-23T01:57:53.888Z,97725.66
2018-12-23T01:58:25.481Z,97732.47
2018-12-23T01:58:57.088Z,97730.77
2018-12-23T01:59:28.684Z,97722.24
2018-12-23T02:00:00.273Z,97731.61
2018-12-23T02:00:31.908Z,97730.77
2018-12-23T02:01:03.523Z,97741.43
2018-12-23T02:01:35.124Z,97732.11
2018-12-23T02:02:06.723Z,97731.70
2018-12-23T02:02:38.313Z,97740.66
2018-12-23T02:03:09.910Z,97722.24
2018-12-23T02:03:41.510Z,97732.38
2018-12-23T02:04:13.102Z,97734.25
2018-12-23T02:04:44.694Z,97743.61
2018-12-23T02:05:16.313Z,97741.06
2018-12-23T02:05:47.930Z,97729.52
2018-12-23T02:06:19.537Z,97737.90
2018-12-23T02:06:51.136Z,97740.05
2018-12-23T02:07:22.748Z,97737.94
2018-12-23T02:07:54.343Z,97739.52
2018-12-23T02:08:25.934Z,97741.50
2018-12-23T02:08:57.526Z,97741.37
2018-12-23T02:09:29.117Z,97753.19
2018-12-23T02:10:00.728Z,97747.59
2018-12-23T02:10:32.351Z,97756.03
2018-12-23T02:11:03.936Z,97751.66
2018-12-23T02:11:35.530Z,97752.50
2018-12-23T02:12:07.148Z,97748.16
2018-12-23T02:12:38.752Z,97749.80
2018-12-23T02:13:10.345Z,97750.20
2018-12-23T02:13:41.945Z,97756.10
2018-12-23T02:14:13.529Z,97752.67
2018-12-23T02:14:45.121Z,97755.22
2018-12-23T02:15:16.732Z,97747.55
2018-12-23T02:15:48.368Z,97756.88
2018-12-23T02:16:19.962Z,97756.02
2018-12-23T02:16:51.548Z,97755.57
2018-12-23T02:17:23.150Z,97761.92
2018-12-23T02:17:54.741Z,97752.59
2018-12-23T02:18:26.352Z,97756.85
2018-12-23T02:18:57.945Z,97754.25
2018-12-23T02:19:29.542Z,97758.07
2018-12-23T02:20:01.133Z,97760.69
2018-12-23T02:20:32.765Z,97758.98
2018-12-23T02:21:04.376Z,97761.55
2018-12-23T02:21:35.988Z,97761.13
2018-12-23T02:22:07.600Z,97764.46
2018-12-23T02:22:39.198Z,97762.75
2018-12-23T02:23:10.789Z,97768.66
2018-12-23T02:23:42.397Z,97775.05
2018-12-23T02:24:13.994Z,97775.87
2018-12-23T02:24:45.603Z,97773.33
2018-12-23T02:25:17.195Z,97770.34
2018-12-23T02:25:48.804Z,97778.02
2018-12-23T02:26:20.394Z,97783.14
2018-12-23T02:26:51.985Z,97778.06
2018-12-23T02:27:23.563Z,97780.64
2018-12-23T02:27:55.171Z,97779.78
2018-12-23T02:28:26.780Z,97777.23
2018-12-23T02:28:58.387Z,97781.06
2018-12-23T02:29:29.982Z,97781.51
2018-12-23T02:30:01.579Z,97792.58
2018-12-23T02:30:33.205Z,97783.64
2018-12-23T02:31:04.826Z,97785.34
2018-12-23T02:31:36.408Z,97785.77
2018-12-23T02:32:08.002Z,97781.94
2018-12-23T02:32:39.593Z,97783.22
2018-12-23T02:33:11.195Z,97783.64
2018-12-23T02:33:42.791Z,97787.04
2018-12-23T02:34:14.391Z,97784.49
2018-12-23T02:34:45.994Z,97789.61
2018-12-23T02:35:17.594Z,97788.38
2018-12-23T02:35:55.559Z,97785.83
2018-12-23T02:36:20.879Z,97789.66
2018-12-23T02:36:52.481Z,97796.04
2018-12-23T02:37:24.074Z,97791.77
2018-12-23T02:37:55.684Z,97784.06
2018-12-23T02:38:27.289Z,97786.19
2018-12-23T02:38:58.872Z,97792.99
2018-12-23T02:39:30.466Z,97795.11
2018-12-23T02:40:02.076Z,97790.84
2018-12-23T02:40:33.676Z,97798.47
2018-12-23T02:41:05.298Z,97795.49
2018-12-23T02:41:36.898Z,97792.52
2018-12-23T02:42:08.489Z,97787.89
2018-12-23T02:42:40.085Z,97792.14
2018-12-23T02:43:11.687Z,97791.23
2018-12-23T02:43:43.296Z,97784.45
2018-12-23T02:44:14.894Z,97790.37
2018-12-23T02:44:46.516Z,97794.64
2018-12-23T02:45:18.149Z,97797.20
2018-12-23T02:45:49.778Z,97795.05
2018-12-23T02:46:21.373Z,97792.92
2018-12-23T02:46:52.971Z,97789.96
2018-12-23T02:47:24.568Z,97792.94
2018-12-23T02:47:56.149Z,97795.07
2018-12-23T02:48:27.759Z,97798.05
2018-12-23T02:48:59.364Z,97791.64
2018-12-23T02:49:30.961Z,97793.69
2018-12-23T02:50:02.561Z,97800.36
2018-12-23T02:50:34.167Z,97799.02
2018-12-23T02:51:05.800Z,97798.98
2018-12-23T02:51:37.384Z,97806.18
2018-12-23T02:52:08.982Z,97799.37
2018-12-23T02:52:40.574Z,97800.16
2018-12-23T02:53:12.166Z,97798.06
2018-12-23T02:53:43.758Z,97799.30
2018-12-23T02:54:15.379Z,97802.70
2018-12-23T02:54:46.977Z,97794.61
2018-12-23T02:55:18.599Z,97798.48
2018-12-23T02:55:50.222Z,97801.43
2018-12-23T02:56:21.818Z,97800.16
2018-12-23T02:56:53.413Z,97805.27
2018-12-23T02:57:24.996Z,97807.02
2018-12-23T02:57:56.577Z,97797.64
2018-12-23T02:58:28.174Z,97799.34
2018-12-23T02:58:59.769Z,97803.20
2018-12-23T02:59:31.362Z,97798.52
2018-12-23T03:00:02.953Z,97807.88
2018-12-23T03:00:34.539Z,97804.53
2018-12-23T03:01:06.141Z,97803.64
2018-12-23T03:01:37.733Z,97801.55
2018-12-23T03:02:09.347Z,97804.95
2018-12-23T03:02:40.943Z,97801.92
2018-12-23T03:03:12.533Z,97801.55
2018-12-23T03:03:44.133Z,97808.31
2018-12-23T03:04:15.741Z,97803.25
2018-12-23T03:04:47.333Z,97801.50
2018-12-23T03:05:18.926Z,97800.22
2018-12-23T03:05:50.508Z,97805.75
2018-12-23T03:06:22.104Z,97812.13
2018-12-23T03:06:53.711Z,97800.64
2018-12-23T03:07:25.295Z,97806.59
2018-12-23T03:07:56.890Z,97807.47
2018-12-23T03:08:28.486Z,97810.36
2018-12-23T03:09:00.079Z,97809.09
2018-12-23T03:09:31.660Z,97811.22
2018-12-23T03:10:03.249Z,97808.24
2018-12-23T03:10:34.841Z,97811.66
2018-12-23T03:11:06.476Z,97813.40
2018-12-23T03:11:38.081Z,97818.05
2018-12-23T03:12:09.677Z,97818.05
2018-12-23T03:12:41.269Z,97821.49
2018-12-23T03:13:12.878Z,97824.91
2018-12-23T03:13:44.492Z,97829.59
2018-12-23T03:14:16.107Z,97832.53
2018-12-23T03:14:47.728Z,97830.02
2018-12-23T03:15:19.331Z,97828.31
2018-12-23T03:15:50.930Z,97839.40
2018-12-23T03:16:22.572Z,97842.38
2018-12-23T03:16:54.189Z,97842.83
2018-12-23T03:17:25.788Z,97836.84
2018-12-23T03:17:57.373Z,97837.70
2018-12-23T03:18:28.969Z,97836.00
2018-12-23T03:19:00.578Z,97850.06
2018-12-23T03:19:32.160Z,97845.37
2018-12-23T03:20:03.754Z,97847.56
2018-12-23T03:20:35.365Z,97849.27
2018-12-23T03:21:06.976Z,97853.53
2018-12-23T03:21:38.588Z,97848.42
2018-12-23T03:22:10.182Z,97853.53
2018-12-23T03:22:41.787Z,97859.92
2018-12-23T03:23:13.404Z,97853.96
2018-12-23T03:23:44.989Z,97860.35
2018-12-23T03:24:16.586Z,97862.91
2018-12-23T03:24:48.197Z,97841.39
2018-12-23T03:25:19.810Z,97862.47
2018-12-23T03:25:51.409Z,97865.88
2018-12-23T03:26:23.040Z,97858.23
2018-12-23T03:26:54.652Z,97862.05
2018-12-23T03:27:26.246Z,97836.88
2018-12-23T03:27:57.837Z,97860.78
2018-12-23T03:28:29.448Z,97864.20
2018-12-23T03:29:01.037Z,97867.16
2018-12-23T03:29:32.634Z,97862.92
2018-12-23T03:30:04.245Z,97864.21
2018-12-23T03:30:35.846Z,97858.23
2018-12-23T03:31:07.481Z,97856.08
2018-12-23T03:31:39.089Z,97856.95
2018-12-23T03:32:10.689Z,97862.92
2018-12-23T03:32:42.279Z,97859.49
2018-12-23T03:33:13.879Z,97863.32
2018-12-23T03:33:45.500Z,97860.77
2018-12-23T03:34:17.105Z,97865.04
2018-12-23T03:34:48.710Z,97841.20
2018-12-23T03:35:20.303Z,97870.16
2018-12-23T03:35:51.902Z,97874.00
2018-12-23T03:36:23.521Z,97871.88
2018-12-23T03:36:55.128Z,97870.64
2018-12-23T03:37:26.721Z,97871.52
2018-12-23T03:37:58.314Z,97871.88
2018-12-23T03:38:29.892Z,97874.44
2018-12-23T03:39:01.491Z,97879.55
2018-12-23T03:39:33.132Z,97881.73
2018-12-23T03:40:04.735Z,97877.05
2018-12-23T03:40:36.334Z,97877.05
2018-12-23T03:41:07.991Z,97877.48
2018-12-23T03:41:39.591Z,97880.03
2018-12-23T03:42:11.207Z,97877.05
2018-12-23T03:42:42.802Z,97883.02
2018-12-23T03:43:14.404Z,97881.73
2018-12-23T03:43:46.016Z,97883.02
2018-12-23T03:44:17.612Z,97882.17
2018-12-23T03:44:49.214Z,97880.10
2018-12-23T03:45:20.819Z,97880.53
2018-12-23T03:45:52.417Z,97879.67
2018-12-23T03:46:24.046Z,97881.37
2018-12-23T03:46:55.641Z,97878.38
2018-12-23T03:47:27.245Z,97880.95
2018-12-23T03:47:58.842Z,97877.11
2018-12-23T03:48:30.449Z,97878.81
2018-12-23T03:49:02.060Z,97880.95
2018-12-23T03:49:33.659Z,97882.64
2018-12-23T03:50:05.253Z,97884.79
2018-12-23T03:50:36.842Z,97883.08
2018-12-23T03:51:08.445Z,97885.20
2018-12-23T03:51:40.088Z,97884.36
2018-12-23T03:52:11.686Z,97883.94
2018-12-23T03:52:43.291Z,97881.38
2018-12-23T03:53:14.903Z,97885.57
2018-12-23T03:53:46.515Z,97888.55
2018-12-23T03:54:18.109Z,97891.53
2018-12-23T03:54:49.702Z,97889.41
2018-12-23T03:55:21.320Z,97895.36
2018-12-23T03:55:52.928Z,97891.52
2018-12-23T03:56:24.550Z,97894.86
2018-12-23T03:56:56.181Z,97895.72
2018-12-23T03:57:27.769Z,97896.14
2018-12-23T03:57:59.384Z,97894.88
2018-12-23T03:58:30.992Z,97896.58
2018-12-23T03:59:02.603Z,97898.28
2018-12-23T03:59:34.204Z,97898.27
2018-12-23T04:00:05.811Z,97895.73
2018-12-23T04:00:37.411Z,97895.70
2018-12-23T04:01:09.002Z,97897.83
2018-12-23T04:01:40.622Z,97896.94
2018-12-23T04:02:12.225Z,97891.02
2018-12-23T04:02:43.810Z,97895.30
2018-12-23T04:03:15.406Z,97893.16
2018-12-23T04:03:46.997Z,97894.84
2018-12-23T04:04:18.588Z,97898.70
2018-12-23T04:04:50.169Z,97892.30
2018-12-23T04:05:21.784Z,97901.23
2018-12-23T04:05:53.377Z,97895.73
2018-12-23T04:06:25.177Z,97896.15
2018-12-23T04:06:56.691Z,97897.44
2018-12-23T04:07:28.293Z,97895.77
2018-12-23T04:07:59.886Z,97894.92
2018-12-23T04:08:31.487Z,97894.52
2018-12-23T04:09:03.086Z,97902.20
2018-12-23T04:09:34.683Z,97896.65
2018-12-23T04:10:06.269Z,97897.07
2018-12-23T04:10:37.854Z,97894.10
2018-12-23T04:11:09.442Z,97894.16
2018-12-23T04:11:41.100Z,97895.45
2018-12-23T04:12:12.712Z,97901.41
2018-12-23T04:12:44.297Z,97900.14
2018-12-23T04:13:15.890Z,97892.08
2018-12-23T04:13:47.488Z,97896.34
2018-12-23T04:14:19.104Z,97901.42
2018-12-23T04:14:50.711Z,97895.08
2018-12-23T04:15:22.322Z,97900.14
2018-12-23T04:15:53.922Z,97898.42
2018-12-23T04:16:25.513Z,97900.54
2018-12-23T04:16:57.137Z,97900.55
2018-12-23T04:17:28.743Z,97900.54
2018-12-23T04:18:00.328Z,97897.56
2018-12-23T04:18:31.912Z,97900.92
2018-12-23T04:19:03.515Z,97901.76
2018-12-23T04:19:35.124Z,97901.34
2018-12-23T04:20:06.723Z,97895.38
2018-12-23T04:20:38.313Z,97890.75
2018-12-23T04:21:09.904Z,97895.02
2018-12-23T04:21:41.522Z,97898.42
2018-12-23T04:22:13.157Z,97895.88
2018-12-23T04:22:44.772Z,97897.99
2018-12-23T04:23:16.366Z,97899.28
2018-12-23T04:23:47.976Z,97896.30
2018-12-23T04:24:19.640Z,97898.47
2018-12-23T04:24:51.227Z,97895.49
2018-12-23T04:25:22.836Z,97900.56
2018-12-23T04:25:54.446Z,97897.58
2018-12-23T04:26:26.047Z,97899.28
2018-12-23T04:26:57.672Z,97895.88
2018-12-23T04:27:29.266Z,97899.28
2018-12-23T04:28:00.875Z,97899.75
2018-12-23T04:28:32.465Z,97900.14
2018-12-23T04:29:04.062Z,97891.25
2018-12-23T04:29:35.663Z,97896.77
2018-12-23T04:30:07.249Z,97892.52
2018-12-23T04:30:38.841Z,97892.95
2018-12-23T04:31:10.437Z,97868.68
2018-12-23T04:31:42.045Z,97893.80
2018-12-23T04:32:13.662Z,97894.64
2018-12-23T04:32:45.268Z,97893.38
2018-12-23T04:33:16.868Z,97895.08
2018-12-23T04:33:48.460Z,97894.22
2018-12-23T04:34:20.063Z,97894.66
2018-12-23T04:34:51.658Z,97892.10
2018-12-23T04:35:23.251Z,97894.22
2018-12-23T04:35:54.849Z,97890.81
2018-12-23T04:36:34.082Z,97893.38
2018-12-23T04:36:58.133Z,97895.94
2018-12-23T04:37:29.737Z,97894.66
2018-12-23T04:38:01.331Z,97892.95
2018-12-23T04:38:32.940Z,97891.25
2018-12-23T04:39:04.534Z,97894.23
2018-12-23T04:39:36.140Z,97893.44
2018-12-23T04:40:07.723Z,97891.30
2018-12-23T04:40:39.303Z,97889.61
2018-12-23T04:41:10.902Z,97898.13
2018-12-23T04:41:42.512Z,97895.98
2018-12-23T04:42:14.150Z,97892.58
2018-12-23T04:42:45.746Z,97896.00
2018-12-23T04:43:17.348Z,97898.14
2018-12-23T04:43:48.930Z,97888.89
2018-12-23T04:44:20.536Z,97894.35
2018-12-23T04:44:52.136Z,97895.20
2018-12-23T04:45:23.726Z,97899.47
2018-12-23T04:45:55.326Z,97902.88
2018-12-23T04:46:26.933Z,97898.19
2018-12-23T04:46:58.534Z,97898.20
2018-12-23T04:47:30.270Z,97902.45
2018-12-23T04:48:01.832Z,97902.88
2018-12-23T04:48:33.416Z,97903.30
2018-12-23T04:49:05.015Z,97905.81
2018-12-23T04:49:36.609Z,97909.64
2018-12-23T04:50:08.216Z,97905.86
2018-12-23T04:50:39.809Z,97908.78
2018-12-23T04:51:11.403Z,97906.64
2018-12-23T04:51:42.998Z,97909.99
2018-12-23T04:52:14.623Z,97912.06
2018-12-23T04:52:46.222Z,97905.23
2018-12-23T04:53:17.814Z,97907.28
2018-12-23T04:53:49.424Z,97911.50
2018-12-23T04:54:21.022Z,97906.00
2018-12-23T04:54:52.600Z,97914.52
2018-12-23T04:55:25.430Z,97914.13
2018-12-23T04:55:55.834Z,97911.14
2018-12-23T04:56:27.429Z,97906.92
2018-12-23T04:56:59.032Z,97905.65
2018-12-23T04:57:30.635Z,97904.80
2018-12-23T04:58:02.254Z,97903.52
2018-12-23T04:58:33.880Z,97902.70
2018-12-23T04:59:05.488Z,97903.54
2018-12-23T04:59:37.082Z,97899.33
2018-12-23T05:00:08.683Z,97904.86
2018-12-23T05:00:40.279Z,97898.48
2018-12-23T05:01:11.873Z,97900.19
2018-12-23T05:01:43.466Z,97901.95
2018-12-23T05:02:15.069Z,97905.79
2018-12-23T05:02:46.663Z,97904.52
2018-12-23T05:03:18.274Z,97904.10
2018-12-23T05:03:49.884Z,97910.06
2018-12-23T05:04:21.478Z,97902.39
2018-12-23T05:04:53.081Z,97908.36
2018-12-23T05:05:24.673Z,97910.05
2018-12-23T05:05:56.281Z,97905.73
2018-12-23T05:06:27.873Z,97908.70
2018-12-23T05:06:59.484Z,97901.47
2018-12-23T05:07:31.092Z,97904.87
2018-12-23T05:08:02.699Z,97903.61
2018-12-23T05:08:34.311Z,97898.08
2018-12-23T05:09:06.138Z,97898.50
2018-12-23T05:09:37.744Z,97898.13
2018-12-23T05:10:09.364Z,97897.77
2018-12-23T05:10:40.962Z,97892.24
2018-12-23T05:11:12.574Z,97896.92
2018-12-23T05:11:44.170Z,97899.91
2018-12-23T05:12:15.763Z,97908.05
2018-12-23T05:12:47.372Z,97898.28
2018-12-23T05:13:18.956Z,97905.89
2018-12-23T05:13:50.554Z,97909.72
2018-12-23T05:14:22.160Z,97911.48
2018-12-23T05:14:53.764Z,97908.91
2018-12-23T05:15:25.367Z,97911.90
2018-12-23T05:15:56.962Z,97906.77
2018-12-23T05:16:28.548Z,97909.77
2018-12-23T05:17:00.138Z,97908.06
2018-12-23T05:17:31.759Z,97910.63
2018-12-23T05:18:03.357Z,97910.19
2018-12-23T05:18:34.951Z,97913.19
2018-12-23T05:19:06.557Z,97907.64
2018-12-23T05:19:38.144Z,97915.31
2018-12-23T05:20:09.870Z,97913.63
2018-12-23T05:20:41.433Z,97911.50
2018-12-23T05:21:13.039Z,97913.63
2018-12-23T05:21:44.649Z,97907.66
2018-12-23T05:22:16.251Z,97911.92
2018-12-23T05:22:47.963Z,97910.27
2018-12-23T05:23:19.552Z,97918.80
2018-12-23T05:23:51.145Z,97910.69
2018-12-23T05:24:22.757Z,97921.34
2018-12-23T05:24:54.363Z,97922.22
2018-12-23T05:25:25.967Z,97916.30
2018-12-23T05:25:57.571Z,97923.49
2018-12-23T05:26:29.160Z,97923.10
2018-12-23T05:27:00.754Z,97929.92
2018-12-23T05:27:32.366Z,97925.67
2018-12-23T05:28:03.995Z,97930.78
2018-12-23T05:28:35.601Z,97931.63
2018-12-23T05:29:07.221Z,97942.28
2018-12-23T05:29:38.817Z,97942.28
2018-12-23T05:30:10.414Z,97940.16
2018-12-23T05:30:42.005Z,97937.61
2018-12-23T05:31:13.599Z,97941.38
2018-12-23T05:31:45.197Z,97946.46
2018-12-23T05:32:16.791Z,97943.00
2018-12-23T05:32:48.426Z,97951.89
2018-12-23T05:33:20.013Z,97948.48
2018-12-23T05:33:51.616Z,97945.48
2018-12-23T05:34:23.224Z,97948.05
2018-12-23T05:34:54.817Z,97948.09
2018-12-23T05:35:26.409Z,97946.34
2018-12-23T05:35:58.002Z,97950.16
2018-12-23T05:36:29.608Z,97947.60
2018-12-23T05:37:01.312Z,97951.02
2018-12-23T05:37:32.905Z,97945.98
2018-12-23T05:38:04.527Z,97952.78
2018-12-23T05:38:36.122Z,97953.64
2018-12-23T05:39:07.719Z,97948.11
2018-12-23T05:39:39.316Z,97952.78
2018-12-23T05:40:10.919Z,97948.05
2018-12-23T05:40:42.535Z,97955.72
2018-12-23T05:41:14.144Z,97949.34
2018-12-23T05:41:45.742Z,97951.45
2018-12-23T05:42:17.334Z,97950.58
2018-12-23T05:42:48.974Z,97949.69
2018-12-23T05:43:20.571Z,97959.90
2018-12-23T05:43:52.185Z,97953.52
2018-12-23T05:44:23.778Z,97953.53
2018-12-23T05:44:55.376Z,97958.68
2018-12-23T05:45:26.969Z,97951.02
2018-12-23T05:45:58.568Z,97951.02
2018-12-23T05:46:30.178Z,97958.68
2018-12-23T05:47:01.775Z,97952.29
2018-12-23T05:47:33.374Z,97959.97
2018-12-23T05:48:04.994Z,97956.19
2018-12-23T05:48:36.932Z,97950.22
2018-12-23T05:49:08.525Z,97956.19
2018-12-23T05:49:40.127Z,97958.34
2018-12-23T05:50:11.714Z,97956.69
2018-12-23T05:50:43.303Z,97959.68
2018-12-23T05:51:14.885Z,97959.26
2018-12-23T05:51:46.545Z,97957.99
2018-12-23T05:52:18.120Z,97963.16
2018-12-23T05:52:49.757Z,97958.91
2018-12-23T05:53:21.364Z,97962.73
2018-12-23T05:53:52.957Z,97957.63
2018-12-23T05:54:24.549Z,97961.56
2018-12-23T05:54:56.146Z,97960.66
2018-12-23T05:55:27.742Z,97958.95
2018-12-23T05:55:59.347Z,97961.03
2018-12-23T05:56:30.956Z,97958.09
2018-12-23T05:57:02.564Z,97955.97
2018-12-23T05:57:34.163Z,97958.90
2018-12-23T05:58:05.804Z,97958.05
2018-12-23T05:58:37.407Z,97961.44
2018-12-23T05:59:09.016Z,97957.63
2018-12-23T05:59:40.619Z,97960.59
2018-12-23T06:00:12.218Z,97958.47
2018-12-23T06:00:43.814Z,97961.44
2018-12-23T06:01:15.410Z,97958.89
2018-12-23T06:01:48.543Z,97962.73
2018-12-23T06:02:27.536Z,97961.02
2018-12-23T06:02:59.675Z,97958.87
2018-12-23T06:03:34.684Z,97961.83
2018-12-23T06:04:06.296Z,97967.34
2018-12-23T06:04:37.913Z,97969.89
2018-12-23T06:05:09.516Z,97968.20
2018-12-23T06:05:41.124Z,97969.48
2018-12-23T06:06:12.732Z,97965.28
2018-12-23T06:06:44.328Z,97972.52
2018-12-23T06:07:15.922Z,97972.52
2018-12-23T06:07:47.528Z,97969.95
2018-12-23T06:08:19.164Z,97969.91
2018-12-23T06:08:50.767Z,97965.65
2018-12-23T06:09:22.377Z,97967.34
2018-12-23T06:09:53.973Z,97968.61
2018-12-23T06:10:25.575Z,97968.19
2018-12-23T06:10:57.188Z,97965.58
2018-12-23T06:11:28.772Z,97968.98